sensor_id;sensor_type;location;lat;lon;timestamp;P1;durP1;ratioP1;P2;durP2;ratioP2
43837;SDS011;65998;46.256;7.534;2023-05-27T00:02:24;6.83;;;3.63;;
43837;SDS011;65998;46.256;7.534;2023-05-27T00:04:50;6.85;;;3.42;;
43837;SDS011;65998;46.256;7.534;2023-05-27T00:07:16;8.53;;;3.77;;
43837;SDS011;65998;46.256;7.534;2023-05-27T00:09:42;8.05;;;3.58;;
43837;SDS011;65998;46.256;7.534;2023-05-27T00:12:08;6.78;;;3.45;;
43837;SDS011;65998;46.256;7.534;2023-05-27T00:14:34;8.25;;;3.80;;
43837;SDS011;65998;46.256;7.534;2023-05-27T00:16:59;8.10;;;4.18;;
43837;SDS011;65998;46.256;7.534;2023-05-27T00:19:25;8.35;;;3.80;;
43837;SDS011;65998;46.256;7.534;2023-05-27T00:21:51;7.60;;;3.70;;
43837;SDS011;65998;46.256;7.534;2023-05-27T00:24:17;8.25;;;4.18;;
43837;SDS011;65998;46.256;7.534;2023-05-27T00:26:43;7.68;;;4.10;;
43837;SDS011;65998;46.256;7.534;2023-05-27T00:29:09;8.00;;;3.87;;
43837;SDS011;65998;46.256;7.534;2023-05-27T00:31:35;8.82;;;3.88;;
43837;SDS011;65998;46.256;7.534;2023-05-27T00:34:01;8.55;;;4.00;;
43837;SDS011;65998;46.256;7.534;2023-05-27T00:36:27;7.80;;;4.03;;
43837;SDS011;65998;46.256;7.534;2023-05-27T00:38:53;6.90;;;3.47;;
43837;SDS011;65998;46.256;7.534;2023-05-27T00:41:18;7.53;;;3.77;;
43837;SDS011;65998;46.256;7.534;2023-05-27T00:43:44;7.85;;;3.60;;
43837;SDS011;65998;46.256;7.534;2023-05-27T00:46:10;7.47;;;4.13;;
43837;SDS011;65998;46.256;7.534;2023-05-27T00:48:36;9.05;;;4.18;;
43837;SDS011;65998;46.256;7.534;2023-05-27T00:51:02;8.85;;;4.00;;
43837;SDS011;65998;46.256;7.534;2023-05-27T00:53:28;8.40;;;4.03;;
43837;SDS011;65998;46.256;7.534;2023-05-27T00:56:01;7.28;;;3.90;;
43837;SDS011;65998;46.256;7.534;2023-05-27T00:58:28;7.72;;;3.80;;
43837;SDS011;65998;46.256;7.534;2023-05-27T01:00:54;8.50;;;4.20;;
43837;SDS011;65998;46.256;7.534;2023-05-27T01:03:20;7.85;;;3.88;;
43837;SDS011;65998;46.256;7.534;2023-05-27T01:05:46;9.30;;;4.10;;
43837;SDS011;65998;46.256;7.534;2023-05-27T01:11:15;9.07;;;4.03;;
43837;SDS011;65998;46.256;7.534;2023-05-27T01:13:50;8.55;;;3.97;;
43837;SDS011;65998;46.256;7.534;2023-05-27T01:16:21;8.70;;;3.97;;
43837;SDS011;65998;46.256;7.534;2023-05-27T01:18:48;7.95;;;4.10;;
43837;SDS011;65998;46.256;7.534;2023-05-27T01:21:15;9.75;;;3.75;;
43837;SDS011;65998;46.256;7.534;2023-05-27T01:23:42;9.27;;;4.78;;
43837;SDS011;65998;46.256;7.534;2023-05-27T01:26:08;9.13;;;4.30;;
43837;SDS011;65998;46.256;7.534;2023-05-27T01:28:35;8.35;;;4.07;;
43837;SDS011;65998;46.256;7.534;2023-05-27T01:31:19;8.30;;;4.07;;
43837;SDS011;65998;46.256;7.534;2023-05-27T01:33:55;9.07;;;4.25;;
43837;SDS011;65998;46.256;7.534;2023-05-27T01:36:26;8.25;;;4.00;;
43837;SDS011;65998;46.256;7.534;2023-05-27T01:38:56;8.40;;;3.95;;
43837;SDS011;65998;46.256;7.534;2023-05-27T01:41:24;8.52;;;4.20;;
43837;SDS011;65998;46.256;7.534;2023-05-27T01:43:50;8.40;;;4.10;;
43837;SDS011;65998;46.256;7.534;2023-05-27T01:46:17;7.43;;;4.00;;
43837;SDS011;65998;46.256;7.534;2023-05-27T01:48:43;8.30;;;4.35;;
43837;SDS011;65998;46.256;7.534;2023-05-27T01:51:09;9.63;;;4.17;;
43837;SDS011;65998;46.256;7.534;2023-05-27T01:53:35;8.32;;;3.67;;
43837;SDS011;65998;46.256;7.534;2023-05-27T01:56:01;9.20;;;4.47;;
43837;SDS011;65998;46.256;7.534;2023-05-27T01:58:27;8.47;;;3.83;;
43837;SDS011;65998;46.256;7.534;2023-05-27T02:00:52;8.27;;;4.30;;
43837;SDS011;65998;46.256;7.534;2023-05-27T02:03:18;7.72;;;3.63;;
43837;SDS011;65998;46.256;7.534;2023-05-27T02:05:44;8.10;;;4.10;;
43837;SDS011;65998;46.256;7.534;2023-05-27T02:08:10;8.43;;;4.00;;
43837;SDS011;65998;46.256;7.534;2023-05-27T02:10:36;8.20;;;4.13;;
43837;SDS011;65998;46.256;7.534;2023-05-27T02:13:02;7.93;;;3.58;;
43837;SDS011;65998;46.256;7.534;2023-05-27T02:15:28;6.97;;;3.70;;
43837;SDS011;65998;46.256;7.534;2023-05-27T02:17:54;8.33;;;3.60;;
43837;SDS011;65998;46.256;7.534;2023-05-27T02:20:19;7.82;;;3.67;;
43837;SDS011;65998;46.256;7.534;2023-05-27T02:22:45;8.63;;;4.13;;
43837;SDS011;65998;46.256;7.534;2023-05-27T02:25:11;10.23;;;3.90;;
43837;SDS011;65998;46.256;7.534;2023-05-27T02:27:37;6.95;;;3.50;;
43837;SDS011;65998;46.256;7.534;2023-05-27T02:30:03;7.73;;;3.80;;
43837;SDS011;65998;46.256;7.534;2023-05-27T02:32:29;6.97;;;3.53;;
43837;SDS011;65998;46.256;7.534;2023-05-27T02:34:54;9.07;;;3.80;;
43837;SDS011;65998;46.256;7.534;2023-05-27T02:37:20;7.65;;;3.70;;
43837;SDS011;65998;46.256;7.534;2023-05-27T02:39:46;6.50;;;3.20;;
43837;SDS011;65998;46.256;7.534;2023-05-27T02:42:12;8.02;;;3.72;;
43837;SDS011;65998;46.256;7.534;2023-05-27T02:44:38;7.75;;;3.70;;
43837;SDS011;65998;46.256;7.534;2023-05-27T02:47:04;8.20;;;3.92;;
43837;SDS011;65998;46.256;7.534;2023-05-27T02:49:29;6.90;;;3.50;;
43837;SDS011;65998;46.256;7.534;2023-05-27T02:51:55;8.13;;;3.65;;
43837;SDS011;65998;46.256;7.534;2023-05-27T02:54:21;7.33;;;3.63;;
43837;SDS011;65998;46.256;7.534;2023-05-27T02:56:47;7.47;;;3.53;;
43837;SDS011;65998;46.256;7.534;2023-05-27T02:59:12;7.10;;;3.70;;
43837;SDS011;65998;46.256;7.534;2023-05-27T03:01:38;6.57;;;3.40;;
43837;SDS011;65998;46.256;7.534;2023-05-27T03:04:04;7.27;;;3.43;;
43837;SDS011;65998;46.256;7.534;2023-05-27T03:06:30;8.07;;;3.75;;
43837;SDS011;65998;46.256;7.534;2023-05-27T03:08:56;6.45;;;3.40;;
43837;SDS011;65998;46.256;7.534;2023-05-27T03:11:21;8.73;;;3.67;;
43837;SDS011;65998;46.256;7.534;2023-05-27T03:13:47;7.22;;;3.72;;
43837;SDS011;65998;46.256;7.534;2023-05-27T03:16:13;7.50;;;3.47;;
43837;SDS011;65998;46.256;7.534;2023-05-27T03:18:39;6.03;;;3.42;;
43837;SDS011;65998;46.256;7.534;2023-05-27T03:21:05;8.33;;;3.80;;
43837;SDS011;65998;46.256;7.534;2023-05-27T03:23:30;6.95;;;3.00;;
43837;SDS011;65998;46.256;7.534;2023-05-27T03:25:56;5.95;;;2.90;;
43837;SDS011;65998;46.256;7.534;2023-05-27T03:28:22;6.87;;;3.27;;
43837;SDS011;65998;46.256;7.534;2023-05-27T03:30:48;6.95;;;3.40;;
43837;SDS011;65998;46.256;7.534;2023-05-27T03:33:14;8.65;;;3.50;;
43837;SDS011;65998;46.256;7.534;2023-05-27T03:35:40;7.00;;;3.50;;
43837;SDS011;65998;46.256;7.534;2023-05-27T03:38:05;7.55;;;3.60;;
43837;SDS011;65998;46.256;7.534;2023-05-27T03:40:31;7.23;;;3.03;;
43837;SDS011;65998;46.256;7.534;2023-05-27T03:42:57;6.97;;;3.47;;
43837;SDS011;65998;46.256;7.534;2023-05-27T03:45:23;7.00;;;3.33;;
43837;SDS011;65998;46.256;7.534;2023-05-27T03:47:48;7.53;;;3.63;;
43837;SDS011;65998;46.256;7.534;2023-05-27T03:50:14;7.65;;;3.30;;
43837;SDS011;65998;46.256;7.534;2023-05-27T03:52:40;7.23;;;3.37;;
43837;SDS011;65998;46.256;7.534;2023-05-27T03:55:06;7.15;;;3.35;;
43837;SDS011;65998;46.256;7.534;2023-05-27T03:57:32;6.82;;;3.03;;
43837;SDS011;65998;46.256;7.534;2023-05-27T03:59:58;7.07;;;3.20;;
43837;SDS011;65998;46.256;7.534;2023-05-27T04:02:24;6.13;;;3.17;;
43837;SDS011;65998;46.256;7.534;2023-05-27T04:04:50;6.15;;;3.17;;
43837;SDS011;65998;46.256;7.534;2023-05-27T04:07:15;6.53;;;3.23;;
43837;SDS011;65998;46.256;7.534;2023-05-27T04:09:41;6.25;;;3.38;;
43837;SDS011;65998;46.256;7.534;2023-05-27T04:12:07;6.50;;;3.27;;
43837;SDS011;65998;46.256;7.534;2023-05-27T04:14:33;7.40;;;3.10;;
43837;SDS011;65998;46.256;7.534;2023-05-27T04:16:59;5.70;;;2.90;;
43837;SDS011;65998;46.256;7.534;2023-05-27T04:19:25;7.47;;;3.20;;
43837;SDS011;65998;46.256;7.534;2023-05-27T04:21:50;6.45;;;3.20;;
43837;SDS011;65998;46.256;7.534;2023-05-27T04:24:16;5.90;;;3.08;;
43837;SDS011;65998;46.256;7.534;2023-05-27T04:26:42;7.10;;;3.13;;
43837;SDS011;65998;46.256;7.534;2023-05-27T04:29:08;5.60;;;2.93;;
43837;SDS011;65998;46.256;7.534;2023-05-27T04:31:34;7.60;;;3.40;;
43837;SDS011;65998;46.256;7.534;2023-05-27T04:34:00;5.93;;;2.90;;
43837;SDS011;65998;46.256;7.534;2023-05-27T04:36:25;6.30;;;3.17;;
43837;SDS011;65998;46.256;7.534;2023-05-27T04:38:51;6.07;;;3.00;;
43837;SDS011;65998;46.256;7.534;2023-05-27T04:41:17;6.20;;;3.20;;
43837;SDS011;65998;46.256;7.534;2023-05-27T04:43:43;6.22;;;2.85;;
43837;SDS011;65998;46.256;7.534;2023-05-27T04:46:08;5.47;;;2.70;;
43837;SDS011;65998;46.256;7.534;2023-05-27T04:48:34;5.93;;;3.13;;
43837;SDS011;65998;46.256;7.534;2023-05-27T04:51:00;5.75;;;2.45;;
43837;SDS011;65998;46.256;7.534;2023-05-27T04:53:26;6.10;;;2.93;;
43837;SDS011;65998;46.256;7.534;2023-05-27T04:55:52;5.60;;;2.88;;
43837;SDS011;65998;46.256;7.534;2023-05-27T04:58:18;6.28;;;2.67;;
43837;SDS011;65998;46.256;7.534;2023-05-27T05:00:43;5.95;;;2.78;;
43837;SDS011;65998;46.256;7.534;2023-05-27T05:03:09;5.80;;;2.72;;
43837;SDS011;65998;46.256;7.534;2023-05-27T05:05:35;6.00;;;2.80;;
43837;SDS011;65998;46.256;7.534;2023-05-27T05:08:01;5.75;;;2.75;;
43837;SDS011;65998;46.256;7.534;2023-05-27T05:10:28;5.57;;;2.90;;
43837;SDS011;65998;46.256;7.534;2023-05-27T05:12:54;6.47;;;2.92;;
43837;SDS011;65998;46.256;7.534;2023-05-27T05:15:20;6.13;;;2.43;;
43837;SDS011;65998;46.256;7.534;2023-05-27T05:17:46;5.50;;;2.50;;
43837;SDS011;65998;46.256;7.534;2023-05-27T05:20:12;5.20;;;2.63;;
43837;SDS011;65998;46.256;7.534;2023-05-27T05:22:38;6.03;;;2.88;;
43837;SDS011;65998;46.256;7.534;2023-05-27T05:25:04;5.68;;;2.60;;
43837;SDS011;65998;46.256;7.534;2023-05-27T05:27:30;4.38;;;2.13;;
43837;SDS011;65998;46.256;7.534;2023-05-27T05:29:55;4.90;;;2.30;;
43837;SDS011;65998;46.256;7.534;2023-05-27T05:32:21;5.15;;;2.75;;
43837;SDS011;65998;46.256;7.534;2023-05-27T05:34:47;5.57;;;2.27;;
43837;SDS011;65998;46.256;7.534;2023-05-27T05:37:13;5.30;;;2.65;;
43837;SDS011;65998;46.256;7.534;2023-05-27T05:39:40;4.28;;;2.10;;
43837;SDS011;65998;46.256;7.534;2023-05-27T05:42:06;5.00;;;2.50;;
43837;SDS011;65998;46.256;7.534;2023-05-27T05:44:32;5.32;;;2.55;;
43837;SDS011;65998;46.256;7.534;2023-05-27T05:46:58;4.07;;;2.10;;
43837;SDS011;65998;46.256;7.534;2023-05-27T05:49:24;5.68;;;2.45;;
43837;SDS011;65998;46.256;7.534;2023-05-27T05:51:50;5.32;;;2.40;;
43837;SDS011;65998;46.256;7.534;2023-05-27T05:54:15;4.77;;;2.70;;
43837;SDS011;65998;46.256;7.534;2023-05-27T05:56:41;5.18;;;2.70;;
43837;SDS011;65998;46.256;7.534;2023-05-27T05:59:07;5.13;;;2.53;;
43837;SDS011;65998;46.256;7.534;2023-05-27T06:01:33;5.78;;;2.50;;
43837;SDS011;65998;46.256;7.534;2023-05-27T06:03:58;4.68;;;2.28;;
43837;SDS011;65998;46.256;7.534;2023-05-27T06:06:24;5.20;;;2.33;;
43837;SDS011;65998;46.256;7.534;2023-05-27T06:08:50;5.93;;;2.70;;
43837;SDS011;65998;46.256;7.534;2023-05-27T06:11:16;4.30;;;2.20;;
43837;SDS011;65998;46.256;7.534;2023-05-27T06:13:42;4.43;;;2.40;;
43837;SDS011;65998;46.256;7.534;2023-05-27T06:16:08;5.18;;;2.47;;
43837;SDS011;65998;46.256;7.534;2023-05-27T06:18:33;4.77;;;2.50;;
43837;SDS011;65998;46.256;7.534;2023-05-27T06:20:59;4.45;;;2.25;;
43837;SDS011;65998;46.256;7.534;2023-05-27T06:23:25;6.43;;;2.77;;
43837;SDS011;65998;46.256;7.534;2023-05-27T06:25:51;5.53;;;2.55;;
43837;SDS011;65998;46.256;7.534;2023-05-27T06:28:16;6.37;;;2.40;;
43837;SDS011;65998;46.256;7.534;2023-05-27T06:30:42;4.95;;;2.17;;
43837;SDS011;65998;46.256;7.534;2023-05-27T06:33:08;4.30;;;2.17;;
43837;SDS011;65998;46.256;7.534;2023-05-27T06:35:34;4.60;;;2.10;;
43837;SDS011;65998;46.256;7.534;2023-05-27T06:38:00;5.85;;;2.60;;
43837;SDS011;65998;46.256;7.534;2023-05-27T06:40:27;4.32;;;2.28;;
43837;SDS011;65998;46.256;7.534;2023-05-27T06:42:54;3.67;;;1.90;;
43837;SDS011;65998;46.256;7.534;2023-05-27T06:45:19;5.00;;;2.35;;
43837;SDS011;65998;46.256;7.534;2023-05-27T06:47:46;4.45;;;1.90;;
43837;SDS011;65998;46.256;7.534;2023-05-27T06:50:11;4.70;;;2.40;;
43837;SDS011;65998;46.256;7.534;2023-05-27T06:52:37;4.97;;;2.38;;
43837;SDS011;65998;46.256;7.534;2023-05-27T06:55:03;3.93;;;2.20;;
43837;SDS011;65998;46.256;7.534;2023-05-27T06:57:29;4.78;;;2.40;;
43837;SDS011;65998;46.256;7.534;2023-05-27T06:59:55;4.43;;;2.35;;
43837;SDS011;65998;46.256;7.534;2023-05-27T07:02:21;4.80;;;2.00;;
43837;SDS011;65998;46.256;7.534;2023-05-27T07:04:47;4.88;;;2.20;;
43837;SDS011;65998;46.256;7.534;2023-05-27T07:07:13;4.22;;;2.15;;
43837;SDS011;65998;46.256;7.534;2023-05-27T07:09:39;4.33;;;2.30;;
43837;SDS011;65998;46.256;7.534;2023-05-27T07:12:05;4.47;;;2.50;;
43837;SDS011;65998;46.256;7.534;2023-05-27T07:14:31;5.18;;;2.28;;
43837;SDS011;65998;46.256;7.534;2023-05-27T07:16:57;4.78;;;2.20;;
43837;SDS011;65998;46.256;7.534;2023-05-27T07:19:22;4.30;;;2.20;;
43837;SDS011;65998;46.256;7.534;2023-05-27T07:21:48;4.35;;;2.05;;
43837;SDS011;65998;46.256;7.534;2023-05-27T07:24:14;4.53;;;2.10;;
43837;SDS011;65998;46.256;7.534;2023-05-27T07:26:40;4.68;;;2.05;;
43837;SDS011;65998;46.256;7.534;2023-05-27T07:29:06;3.92;;;2.03;;
43837;SDS011;65998;46.256;7.534;2023-05-27T07:31:32;4.70;;;2.10;;
43837;SDS011;65998;46.256;7.534;2023-05-27T07:33:57;4.78;;;2.35;;
43837;SDS011;65998;46.256;7.534;2023-05-27T07:36:23;5.47;;;2.20;;
43837;SDS011;65998;46.256;7.534;2023-05-27T07:38:49;3.83;;;1.90;;
43837;SDS011;65998;46.256;7.534;2023-05-27T07:41:15;4.38;;;2.10;;
43837;SDS011;65998;46.256;7.534;2023-05-27T07:43:41;5.07;;;2.38;;
43837;SDS011;65998;46.256;7.534;2023-05-27T07:46:07;4.35;;;2.20;;
43837;SDS011;65998;46.256;7.534;2023-05-27T07:48:32;4.13;;;2.10;;
43837;SDS011;65998;46.256;7.534;2023-05-27T07:50:59;3.95;;;1.83;;
43837;SDS011;65998;46.256;7.534;2023-05-27T07:53:24;4.53;;;2.00;;
43837;SDS011;65998;46.256;7.534;2023-05-27T07:55:50;4.63;;;2.00;;
43837;SDS011;65998;46.256;7.534;2023-05-27T07:58:16;5.33;;;2.20;;
43837;SDS011;65998;46.256;7.534;2023-05-27T08:00:42;4.53;;;2.20;;
43837;SDS011;65998;46.256;7.534;2023-05-27T08:03:08;4.53;;;2.00;;
43837;SDS011;65998;46.256;7.534;2023-05-27T08:05:34;4.68;;;2.30;;
43837;SDS011;65998;46.256;7.534;2023-05-27T08:07:59;4.90;;;1.97;;
43837;SDS011;65998;46.256;7.534;2023-05-27T08:10:25;4.63;;;2.30;;
43837;SDS011;65998;46.256;7.534;2023-05-27T08:12:51;4.68;;;2.00;;
43837;SDS011;65998;46.256;7.534;2023-05-27T08:15:17;5.38;;;2.30;;
43837;SDS011;65998;46.256;7.534;2023-05-27T08:17:43;4.40;;;2.08;;
43837;SDS011;65998;46.256;7.534;2023-05-27T08:20:10;4.00;;;2.10;;
43837;SDS011;65998;46.256;7.534;2023-05-27T08:22:36;3.95;;;1.90;;
43837;SDS011;65998;46.256;7.534;2023-05-27T08:25:02;3.72;;;1.85;;
43837;SDS011;65998;46.256;7.534;2023-05-27T08:30:18;4.28;;;1.95;;
43837;SDS011;65998;46.256;7.534;2023-05-27T08:32:44;5.27;;;2.20;;
43837;SDS011;65998;46.256;7.534;2023-05-27T08:35:11;5.15;;;2.35;;
43837;SDS011;65998;46.256;7.534;2023-05-27T08:37:37;3.72;;;1.92;;
43837;SDS011;65998;46.256;7.534;2023-05-27T08:40:07;4.72;;;2.20;;
43837;SDS011;65998;46.256;7.534;2023-05-27T08:42:36;3.97;;;2.00;;
43837;SDS011;65998;46.256;7.534;2023-05-27T08:45:02;3.67;;;1.90;;
43837;SDS011;65998;46.256;7.534;2023-05-27T08:47:29;4.10;;;2.20;;
43837;SDS011;65998;46.256;7.534;2023-05-27T08:49:55;4.32;;;2.10;;
43837;SDS011;65998;46.256;7.534;2023-05-27T08:52:20;4.90;;;2.40;;
43837;SDS011;65998;46.256;7.534;2023-05-27T08:54:48;4.57;;;2.15;;
43837;SDS011;65998;46.256;7.534;2023-05-27T08:57:15;4.70;;;2.10;;
43837;SDS011;65998;46.256;7.534;2023-05-27T08:59:43;4.63;;;2.22;;
43837;SDS011;65998;46.256;7.534;2023-05-27T09:02:12;3.60;;;1.95;;
43837;SDS011;65998;46.256;7.534;2023-05-27T09:04:41;4.28;;;2.22;;
43837;SDS011;65998;46.256;7.534;2023-05-27T09:07:07;4.32;;;2.30;;
43837;SDS011;65998;46.256;7.534;2023-05-27T09:09:33;4.03;;;2.15;;
43837;SDS011;65998;46.256;7.534;2023-05-27T09:12:00;4.35;;;1.90;;
43837;SDS011;65998;46.256;7.534;2023-05-27T09:14:28;3.77;;;2.00;;
43837;SDS011;65998;46.256;7.534;2023-05-27T09:16:54;3.97;;;2.25;;
43837;SDS011;65998;46.256;7.534;2023-05-27T09:19:20;4.18;;;2.28;;
43837;SDS011;65998;46.256;7.534;2023-05-27T09:21:48;4.70;;;2.28;;
43837;SDS011;65998;46.256;7.534;2023-05-27T09:24:17;4.18;;;2.38;;
43837;SDS011;65998;46.256;7.534;2023-05-27T09:26:43;4.30;;;2.23;;
43837;SDS011;65998;46.256;7.534;2023-05-27T09:29:09;3.90;;;1.88;;
43837;SDS011;65998;46.256;7.534;2023-05-27T09:31:41;4.60;;;2.13;;
43837;SDS011;65998;46.256;7.534;2023-05-27T09:34:14;3.67;;;2.05;;
43837;SDS011;65998;46.256;7.534;2023-05-27T09:36:42;4.25;;;2.10;;
43837;SDS011;65998;46.256;7.534;2023-05-27T09:39:09;4.90;;;2.40;;
43837;SDS011;65998;46.256;7.534;2023-05-27T09:41:34;4.23;;;2.30;;
43837;SDS011;65998;46.256;7.534;2023-05-27T09:44:00;4.28;;;2.20;;
43837;SDS011;65998;46.256;7.534;2023-05-27T09:46:26;4.93;;;2.50;;
43837;SDS011;65998;46.256;7.534;2023-05-27T09:48:52;4.43;;;2.35;;
43837;SDS011;65998;46.256;7.534;2023-05-27T09:51:18;4.70;;;2.22;;
43837;SDS011;65998;46.256;7.534;2023-05-27T09:53:45;4.00;;;2.22;;
43837;SDS011;65998;46.256;7.534;2023-05-27T09:56:12;3.88;;;2.10;;
43837;SDS011;65998;46.256;7.534;2023-05-27T09:58:40;4.68;;;2.42;;
43837;SDS011;65998;46.256;7.534;2023-05-27T10:01:05;4.38;;;2.03;;
43837;SDS011;65998;46.256;7.534;2023-05-27T10:03:32;4.60;;;2.30;;
43837;SDS011;65998;46.256;7.534;2023-05-27T10:05:58;4.47;;;2.25;;
43837;SDS011;65998;46.256;7.534;2023-05-27T10:08:26;4.18;;;2.10;;
43837;SDS011;65998;46.256;7.534;2023-05-27T10:10:51;3.55;;;1.90;;
43837;SDS011;65998;46.256;7.534;2023-05-27T10:13:18;3.78;;;2.28;;
43837;SDS011;65998;46.256;7.534;2023-05-27T10:15:46;4.18;;;2.33;;
43837;SDS011;65998;46.256;7.534;2023-05-27T10:18:23;4.38;;;2.25;;
43837;SDS011;65998;46.256;7.534;2023-05-27T10:20:50;4.32;;;2.20;;
43837;SDS011;65998;46.256;7.534;2023-05-27T10:23:26;4.10;;;2.13;;
43837;SDS011;65998;46.256;7.534;2023-05-27T10:25:55;4.72;;;2.15;;
43837;SDS011;65998;46.256;7.534;2023-05-27T10:28:40;4.65;;;2.60;;
43837;SDS011;65998;46.256;7.534;2023-05-27T10:31:07;4.63;;;2.38;;
43837;SDS011;65998;46.256;7.534;2023-05-27T10:33:52;5.45;;;2.60;;
43837;SDS011;65998;46.256;7.534;2023-05-27T10:36:26;4.50;;;2.53;;
43837;SDS011;65998;46.256;7.534;2023-05-27T10:38:57;4.50;;;2.38;;
43837;SDS011;65998;46.256;7.534;2023-05-27T10:41:24;4.03;;;2.30;;
43837;SDS011;65998;46.256;7.534;2023-05-27T10:43:57;4.90;;;2.38;;
43837;SDS011;65998;46.256;7.534;2023-05-27T10:46:24;4.35;;;2.30;;
43837;SDS011;65998;46.256;7.534;2023-05-27T10:48:50;4.97;;;2.60;;
43837;SDS011;65998;46.256;7.534;2023-05-27T10:51:16;4.85;;;2.35;;
43837;SDS011;65998;46.256;7.534;2023-05-27T10:53:43;4.88;;;2.60;;
43837;SDS011;65998;46.256;7.534;2023-05-27T10:56:09;4.15;;;2.33;;
43837;SDS011;65998;46.256;7.534;2023-05-27T10:58:37;4.40;;;2.40;;
43837;SDS011;65998;46.256;7.534;2023-05-27T11:01:10;4.63;;;2.20;;
43837;SDS011;65998;46.256;7.534;2023-05-27T11:03:45;4.28;;;2.20;;
43837;SDS011;65998;46.256;7.534;2023-05-27T11:06:12;4.30;;;2.30;;
43837;SDS011;65998;46.256;7.534;2023-05-27T11:08:39;4.45;;;2.10;;
43837;SDS011;65998;46.256;7.534;2023-05-27T11:11:08;5.07;;;2.10;;
43837;SDS011;65998;46.256;7.534;2023-05-27T11:13:36;4.00;;;2.25;;
43837;SDS011;65998;46.256;7.534;2023-05-27T11:16:06;4.55;;;2.40;;
43837;SDS011;65998;46.256;7.534;2023-05-27T11:21:04;4.10;;;2.25;;
43837;SDS011;65998;46.256;7.534;2023-05-27T11:23:48;4.30;;;2.37;;
43837;SDS011;65998;46.256;7.534;2023-05-27T11:26:15;4.25;;;2.22;;
43837;SDS011;65998;46.256;7.534;2023-05-27T11:28:49;3.92;;;2.20;;
43837;SDS011;65998;46.256;7.534;2023-05-27T11:31:19;4.53;;;2.45;;
43837;SDS011;65998;46.256;7.534;2023-05-27T11:33:50;5.05;;;2.40;;
43837;SDS011;65998;46.256;7.534;2023-05-27T11:36:16;3.90;;;2.30;;
43837;SDS011;65998;46.256;7.534;2023-05-27T11:38:46;3.60;;;1.88;;
43837;SDS011;65998;46.256;7.534;2023-05-27T11:41:12;3.92;;;2.20;;
43837;SDS011;65998;46.256;7.534;2023-05-27T11:43:51;4.90;;;2.47;;
43837;SDS011;65998;46.256;7.534;2023-05-27T11:46:20;3.78;;;1.98;;
43837;SDS011;65998;46.256;7.534;2023-05-27T11:48:46;4.37;;;2.20;;
43837;SDS011;65998;46.256;7.534;2023-05-27T11:51:12;4.28;;;2.13;;
43837;SDS011;65998;46.256;7.534;2023-05-27T11:53:39;5.07;;;2.30;;
43837;SDS011;65998;46.256;7.534;2023-05-27T11:56:11;4.68;;;2.40;;
43837;SDS011;65998;46.256;7.534;2023-05-27T11:58:37;4.17;;;2.17;;
43837;SDS011;65998;46.256;7.534;2023-05-27T12:01:03;4.80;;;2.00;;
43837;SDS011;65998;46.256;7.534;2023-05-27T12:03:30;4.03;;;2.20;;
43837;SDS011;65998;46.256;7.534;2023-05-27T12:05:58;4.30;;;2.10;;
43837;SDS011;65998;46.256;7.534;2023-05-27T12:08:24;4.95;;;2.20;;
43837;SDS011;65998;46.256;7.534;2023-05-27T12:10:50;3.95;;;2.10;;
43837;SDS011;65998;46.256;7.534;2023-05-27T12:13:16;4.40;;;2.03;;
43837;SDS011;65998;46.256;7.534;2023-05-27T12:15:42;4.03;;;2.03;;
43837;SDS011;65998;46.256;7.534;2023-05-27T12:18:08;4.10;;;2.05;;
43837;SDS011;65998;46.256;7.534;2023-05-27T12:20:34;4.78;;;2.50;;
43837;SDS011;65998;46.256;7.534;2023-05-27T12:23:00;4.72;;;2.33;;
43837;SDS011;65998;46.256;7.534;2023-05-27T12:25:26;4.32;;;2.08;;
43837;SDS011;65998;46.256;7.534;2023-05-27T12:27:52;5.47;;;2.15;;
43837;SDS011;65998;46.256;7.534;2023-05-27T12:30:17;4.70;;;2.37;;
43837;SDS011;65998;46.256;7.534;2023-05-27T12:32:43;4.00;;;2.00;;
43837;SDS011;65998;46.256;7.534;2023-05-27T12:35:09;4.43;;;2.27;;
43837;SDS011;65998;46.256;7.534;2023-05-27T12:37:35;5.35;;;2.60;;
43837;SDS011;65998;46.256;7.534;2023-05-27T12:40:01;4.90;;;2.47;;
43837;SDS011;65998;46.256;7.534;2023-05-27T12:42:27;4.35;;;2.40;;
43837;SDS011;65998;46.256;7.534;2023-05-27T12:44:52;4.00;;;1.80;;
43837;SDS011;65998;46.256;7.534;2023-05-27T12:47:18;4.82;;;2.38;;
43837;SDS011;65998;46.256;7.534;2023-05-27T12:49:44;4.25;;;2.30;;
43837;SDS011;65998;46.256;7.534;2023-05-27T12:52:10;3.70;;;2.23;;
43837;SDS011;65998;46.256;7.534;2023-05-27T12:54:35;4.00;;;1.98;;
43837;SDS011;65998;46.256;7.534;2023-05-27T12:57:01;4.97;;;2.45;;
43837;SDS011;65998;46.256;7.534;2023-05-27T12:59:27;3.72;;;2.05;;
43837;SDS011;65998;46.256;7.534;2023-05-27T13:01:53;5.10;;;2.50;;
43837;SDS011;65998;46.256;7.534;2023-05-27T13:04:19;4.27;;;2.40;;
43837;SDS011;65998;46.256;7.534;2023-05-27T13:06:45;4.18;;;2.25;;
43837;SDS011;65998;46.256;7.534;2023-05-27T13:09:10;4.13;;;2.17;;
43837;SDS011;65998;46.256;7.534;2023-05-27T13:11:36;5.13;;;2.10;;
43837;SDS011;65998;46.256;7.534;2023-05-27T13:14:02;4.65;;;2.50;;
43837;SDS011;65998;46.256;7.534;2023-05-27T13:16:28;4.80;;;2.53;;
43837;SDS011;65998;46.256;7.534;2023-05-27T13:18:53;5.55;;;2.50;;
43837;SDS011;65998;46.256;7.534;2023-05-27T13:21:19;4.75;;;2.38;;
43837;SDS011;65998;46.256;7.534;2023-05-27T13:23:45;4.53;;;2.37;;
43837;SDS011;65998;46.256;7.534;2023-05-27T13:26:11;4.30;;;2.45;;
43837;SDS011;65998;46.256;7.534;2023-05-27T13:28:37;4.57;;;2.30;;
43837;SDS011;65998;46.256;7.534;2023-05-27T13:31:03;5.15;;;2.42;;
43837;SDS011;65998;46.256;7.534;2023-05-27T13:33:29;4.43;;;2.30;;
43837;SDS011;65998;46.256;7.534;2023-05-27T13:35:54;5.03;;;2.20;;
43837;SDS011;65998;46.256;7.534;2023-05-27T13:38:20;4.38;;;2.35;;
43837;SDS011;65998;46.256;7.534;2023-05-27T13:40:46;4.18;;;2.35;;
43837;SDS011;65998;46.256;7.534;2023-05-27T13:43:12;4.75;;;2.53;;
43837;SDS011;65998;46.256;7.534;2023-05-27T13:45:38;4.53;;;2.03;;
43837;SDS011;65998;46.256;7.534;2023-05-27T13:48:03;4.70;;;2.53;;
43837;SDS011;65998;46.256;7.534;2023-05-27T13:50:30;5.55;;;2.40;;
43837;SDS011;65998;46.256;7.534;2023-05-27T13:52:55;4.13;;;2.10;;
43837;SDS011;65998;46.256;7.534;2023-05-27T13:55:21;4.18;;;2.33;;
43837;SDS011;65998;46.256;7.534;2023-05-27T13:57:47;4.75;;;2.30;;
43837;SDS011;65998;46.256;7.534;2023-05-27T14:00:13;4.13;;;2.33;;
43837;SDS011;65998;46.256;7.534;2023-05-27T14:02:39;4.20;;;2.25;;
43837;SDS011;65998;46.256;7.534;2023-05-27T14:05:05;4.03;;;2.30;;
43837;SDS011;65998;46.256;7.534;2023-05-27T14:07:31;3.70;;;1.88;;
43837;SDS011;65998;46.256;7.534;2023-05-27T14:09:58;4.53;;;2.33;;
43837;SDS011;65998;46.256;7.534;2023-05-27T14:12:24;3.83;;;2.30;;
43837;SDS011;65998;46.256;7.534;2023-05-27T14:14:50;4.57;;;2.60;;
43837;SDS011;65998;46.256;7.534;2023-05-27T14:17:15;4.30;;;2.28;;
43837;SDS011;65998;46.256;7.534;2023-05-27T14:19:41;3.88;;;2.15;;
43837;SDS011;65998;46.256;7.534;2023-05-27T14:22:07;4.35;;;2.40;;
43837;SDS011;65998;46.256;7.534;2023-05-27T14:24:33;4.95;;;2.50;;
43837;SDS011;65998;46.256;7.534;2023-05-27T14:26:59;4.93;;;2.40;;
43837;SDS011;65998;46.256;7.534;2023-05-27T14:29:25;3.72;;;2.28;;
43837;SDS011;65998;46.256;7.534;2023-05-27T14:31:50;4.27;;;2.13;;
43837;SDS011;65998;46.256;7.534;2023-05-27T14:34:16;4.43;;;2.17;;
43837;SDS011;65998;46.256;7.534;2023-05-27T14:36:42;3.80;;;2.28;;
43837;SDS011;65998;46.256;7.534;2023-05-27T14:39:08;3.90;;;2.10;;
43837;SDS011;65998;46.256;7.534;2023-05-27T14:41:34;4.47;;;2.20;;
43837;SDS011;65998;46.256;7.534;2023-05-27T14:44:00;4.22;;;2.20;;
43837;SDS011;65998;46.256;7.534;2023-05-27T14:46:25;4.00;;;2.13;;
43837;SDS011;65998;46.256;7.534;2023-05-27T14:48:51;4.60;;;2.08;;
43837;SDS011;65998;46.256;7.534;2023-05-27T14:51:17;3.63;;;2.00;;
43837;SDS011;65998;46.256;7.534;2023-05-27T14:53:43;4.20;;;2.00;;